sensor_id;sensor_type;location;lat;lon;timestamp;pressure;altitude;pressure_sealevel;temperature;humidity
31299;BME280;17927;52.350;13.402;2023-04-30T00:00:40;101603.38;;;13.36;45.91
31299;BME280;17927;52.350;13.402;2023-04-30T00:03:05;101605.38;;;13.34;45.75
31299;BME280;17927;52.350;13.402;2023-04-30T00:05:31;101617.38;;;13.32;45.67
31299;BME280;17927;52.350;13.402;2023-04-30T00:07:56;101609.41;;;13.30;45.76
31299;BME280;17927;52.350;13.402;2023-04-30T00:10:21;101606.09;;;13.27;45.70
31299;BME280;17927;52.350;13.402;2023-04-30T00:12:46;101617.34;;;13.22;45.50
31299;BME280;17927;52.350;13.402;2023-04-30T00:15:12;101618.50;;;13.19;45.64
31299;BME280;17927;52.350;13.402;2023-04-30T00:17:37;101612.63;;;13.14;45.60
31299;BME280;17927;52.350;13.402;2023-04-30T00:20:03;101621.03;;;13.11;45.61
31299;BME280;17927;52.350;13.402;2023-04-30T00:22:28;101622.19;;;13.08;45.81
31299;BME280;17927;52.350;13.402;2023-04-30T00:24:53;101621.47;;;13.06;45.62
31299;BME280;17927;52.350;13.402;2023-04-30T00:27:18;101627.16;;;13.03;45.73
31299;BME280;17927;52.350;13.402;2023-04-30T00:29:44;101626.44;;;13.01;45.64
31299;BME280;17927;52.350;13.402;2023-04-30T00:32:09;101636.69;;;12.98;45.63
31299;BME280;17927;52.350;13.402;2023-04-30T00:34:34;101640.56;;;12.95;45.63
31299;BME280;17927;52.350;13.402;2023-04-30T00:37:00;101631.84;;;12.91;45.63
31299;BME280;17927;52.350;13.402;2023-04-30T00:39:25;101642.22;;;12.86;45.76
31299;BME280;17927;52.350;13.402;2023-04-30T00:41:50;101648.91;;;12.82;45.79
31299;BME280;17927;52.350;13.402;2023-04-30T00:44:15;101650.91;;;12.80;45.70
31299;BME280;17927;52.350;13.402;2023-04-30T00:46:40;101649.31;;;12.77;45.97
31299;BME280;17927;52.350;13.402;2023-04-30T00:49:06;101658.72;;;12.73;46.07
31299;BME280;17927;52.350;13.402;2023-04-30T00:51:32;101650.84;;;12.70;45.69
31299;BME280;17927;52.350;13.402;2023-04-30T00:54:00;101657.25;;;12.69;45.93
31299;BME280;17927;52.350;13.402;2023-04-30T00:56:25;101653.97;;;12.66;45.89
31299;BME280;17927;52.350;13.402;2023-04-30T00:58:51;101662.25;;;12.64;45.79
31299;BME280;17927;52.350;13.402;2023-04-30T01:01:22;101670.50;;;12.62;45.66
31299;BME280;17927;52.350;13.402;2023-04-30T01:03:48;101667.94;;;12.61;45.78
31299;BME280;17927;52.350;13.402;2023-04-30T01:06:13;101670.06;;;12.57;45.81
31299;BME280;17927;52.350;13.402;2023-04-30T01:08:38;101672.16;;;12.54;45.97
31299;BME280;17927;52.350;13.402;2023-04-30T01:11:11;101675.16;;;12.51;45.59
31299;BME280;17927;52.350;13.402;2023-04-30T01:13:54;101680.94;;;12.46;45.81
31299;BME280;17927;52.350;13.402;2023-04-30T01:16:29;101681.50;;;12.40;46.09
31299;BME280;17927;52.350;13.402;2023-04-30T01:19:01;101677.47;;;12.34;45.70
31299;BME280;17927;52.350;13.402;2023-04-30T01:21:29;101682.41;;;12.29;45.78
31299;BME280;17927;52.350;13.402;2023-04-30T01:27:13;101687.44;;;12.12;46.11
31299;BME280;17927;52.350;13.402;2023-04-30T01:29:41;101684.53;;;12.04;46.02
31299;BME280;17927;52.350;13.402;2023-04-30T01:32:09;101689.31;;;12.00;46.14
31299;BME280;17927;52.350;13.402;2023-04-30T01:34:34;101679.84;;;11.95;46.36
31299;BME280;17927;52.350;13.402;2023-04-30T01:37:21;101687.50;;;11.90;46.61
31299;BME280;17927;52.350;13.402;2023-04-30T01:40:10;101685.56;;;11.80;46.51
31299;BME280;17927;52.350;13.402;2023-04-30T01:42:51;101692.47;;;11.73;46.76
31299;BME280;17927;52.350;13.402;2023-04-30T01:45:32;101694.84;;;11.66;46.94
31299;BME280;17927;52.350;13.402;2023-04-30T01:50:44;101702.63;;;11.60;47.05
31299;BME280;17927;52.350;13.402;2023-04-30T01:53:17;101709.34;;;11.54;47.22
31299;BME280;17927;52.350;13.402;2023-04-30T01:55:50;101710.34;;;11.53;46.93
31299;BME280;17927;52.350;13.402;2023-04-30T01:58:22;101712.59;;;11.48;46.85
31299;BME280;17927;52.350;13.402;2023-04-30T02:00:48;101713.69;;;11.45;46.95
31299;BME280;17927;52.350;13.402;2023-04-30T02:03:14;101718.63;;;11.40;47.38
31299;BME280;17927;52.350;13.402;2023-04-30T02:05:39;101722.41;;;11.37;47.00
31299;BME280;17927;52.350;13.402;2023-04-30T02:08:05;101729.09;;;11.33;47.01
31299;BME280;17927;52.350;13.402;2023-04-30T02:10:30;101722.19;;;11.29;47.12
31299;BME280;17927;52.350;13.402;2023-04-30T02:12:55;101739.66;;;11.25;47.06
31299;BME280;17927;52.350;13.402;2023-04-30T02:15:21;101737.31;;;11.20;46.94
31299;BME280;17927;52.350;13.402;2023-04-30T02:17:46;101734.13;;;11.15;47.13
31299;BME280;17927;52.350;13.402;2023-04-30T02:20:11;101745.44;;;11.09;47.23
31299;BME280;17927;52.350;13.402;2023-04-30T02:22:37;101744.84;;;11.05;46.86
31299;BME280;17927;52.350;13.402;2023-04-30T02:25:02;101740.63;;;11.01;46.99
31299;BME280;17927;52.350;13.402;2023-04-30T02:27:30;101749.13;;;10.96;47.08
31299;BME280;17927;52.350;13.402;2023-04-30T02:29:55;101746.66;;;10.93;47.18
31299;BME280;17927;52.350;13.402;2023-04-30T02:32:21;101752.44;;;10.89;47.39
31299;BME280;17927;52.350;13.402;2023-04-30T02:34:46;101750.06;;;10.84;47.34
31299;BME280;17927;52.350;13.402;2023-04-30T02:37:11;101749.44;;;10.80;47.27
31299;BME280;17927;52.350;13.402;2023-04-30T02:39:37;101748.84;;;10.77;47.59
31299;BME280;17927;52.350;13.402;2023-04-30T02:42:02;101751.91;;;10.72;47.48
31299;BME280;17927;52.350;13.402;2023-04-30T02:44:28;101765.66;;;10.69;47.64
31299;BME280;17927;52.350;13.402;2023-04-30T02:46:53;101751.41;;;10.67;47.50
31299;BME280;17927;52.350;13.402;2023-04-30T02:49:19;101760.63;;;10.64;47.70
31299;BME280;17927;52.350;13.402;2023-04-30T02:51:44;101758.88;;;10.63;47.45
31299;BME280;17927;52.350;13.402;2023-04-30T02:54:10;101761.69;;;10.62;47.98
31299;BME280;17927;52.350;13.402;2023-04-30T02:56:35;101760.84;;;10.61;47.96
31299;BME280;17927;52.350;13.402;2023-04-30T02:59:00;101761.06;;;10.58;48.02
31299;BME280;17927;52.350;13.402;2023-04-30T03:01:26;101762.19;;;10.56;48.08
31299;BME280;17927;52.350;13.402;2023-04-30T03:03:51;101770.38;;;10.54;48.03
31299;BME280;17927;52.350;13.402;2023-04-30T03:06:16;101771.63;;;10.50;48.01
31299;BME280;17927;52.350;13.402;2023-04-30T03:08:42;101781.78;;;10.46;47.85
31299;BME280;17927;52.350;13.402;2023-04-30T03:11:07;101777.34;;;10.45;48.03
31299;BME280;17927;52.350;13.402;2023-04-30T03:13:32;101778.59;;;10.41;48.13
31299;BME280;17927;52.350;13.402;2023-04-30T03:16:02;101785.16;;;10.37;48.19
31299;BME280;17927;52.350;13.402;2023-04-30T03:18:30;101787.13;;;10.35;48.05
31299;BME280;17927;52.350;13.402;2023-04-30T03:20:56;101783.78;;;10.31;48.15
31299;BME280;17927;52.350;13.402;2023-04-30T03:23:22;101791.16;;;10.29;48.21
31299;BME280;17927;52.350;13.402;2023-04-30T03:25:47;101788.66;;;10.26;48.40
31299;BME280;17927;52.350;13.402;2023-04-30T03:28:13;101785.44;;;10.21;48.26
31299;BME280;17927;52.350;13.402;2023-04-30T03:30:39;101787.53;;;10.17;48.08
31299;BME280;17927;52.350;13.402;2023-04-30T03:33:04;101795.00;;;10.14;48.45
31299;BME280;17927;52.350;13.402;2023-04-30T03:35:31;101788.84;;;10.12;48.49
31299;BME280;17927;52.350;13.402;2023-04-30T03:37:56;101794.47;;;10.09;48.78
31299;BME280;17927;52.350;13.402;2023-04-30T03:40:21;101801.81;;;10.06;48.81
31299;BME280;17927;52.350;13.402;2023-04-30T03:42:46;101803.66;;;10.06;49.31
31299;BME280;17927;52.350;13.402;2023-04-30T03:45:12;101802.06;;;10.03;49.38
31299;BME280;17927;52.350;13.402;2023-04-30T03:47:37;101804.78;;;10.03;49.53
31299;BME280;17927;52.350;13.402;2023-04-30T03:50:02;101791.50;;;10.00;49.43
31299;BME280;17927;52.350;13.402;2023-04-30T03:52:28;101804.09;;;10.00;49.52
31299;BME280;17927;52.350;13.402;2023-04-30T03:54:55;101801.53;;;9.98;49.60
31299;BME280;17927;52.350;13.402;2023-04-30T03:57:20;101814.06;;;9.99;49.61
31299;BME280;17927;52.350;13.402;2023-04-30T03:59:46;101815.78;;;10.00;49.67
31299;BME280;17927;52.350;13.402;2023-04-30T04:02:11;101813.09;;;10.00;49.77
31299;BME280;17927;52.350;13.402;2023-04-30T04:04:36;101816.63;;;10.01;49.90
31299;BME280;17927;52.350;13.402;2023-04-30T04:07:02;101825.63;;;10.01;49.68
31299;BME280;17927;52.350;13.402;2023-04-30T04:09:28;101821.94;;;10.02;49.93
31299;BME280;17927;52.350;13.402;2023-04-30T04:11:53;101830.03;;;10.02;49.58
31299;BME280;17927;52.350;13.402;2023-04-30T04:14:18;101834.47;;;10.03;49.66
31299;BME280;17927;52.350;13.402;2023-04-30T04:16:43;101832.63;;;10.04;49.82
31299;BME280;17927;52.350;13.402;2023-04-30T04:19:09;101837.03;;;10.05;49.94
31299;BME280;17927;52.350;13.402;2023-04-30T04:21:34;101839.53;;;10.08;49.91
31299;BME280;17927;52.350;13.402;2023-04-30T04:23:59;101840.28;;;10.10;50.13
31299;BME280;17927;52.350;13.402;2023-04-30T04:26:32;101844.56;;;10.13;50.23
31299;BME280;17927;52.350;13.402;2023-04-30T04:28:57;101842.63;;;10.15;50.16
31299;BME280;17927;52.350;13.402;2023-04-30T04:31:22;101848.78;;;10.17;50.37
31299;BME280;17927;52.350;13.402;2023-04-30T04:33:48;101855.66;;;10.21;50.14
31299;BME280;17927;52.350;13.402;2023-04-30T04:36:13;101853.63;;;10.25;50.02
31299;BME280;17927;52.350;13.402;2023-04-30T04:38:38;101859.63;;;10.28;49.88
31299;BME280;17927;52.350;13.402;2023-04-30T04:41:03;101863.72;;;10.34;50.49
31299;BME280;17927;52.350;13.402;2023-04-30T04:43:29;101861.59;;;10.39;50.48
31299;BME280;17927;52.350;13.402;2023-04-30T04:45:54;101875.72;;;10.43;50.55
31299;BME280;17927;52.350;13.402;2023-04-30T04:48:19;101861.84;;;10.47;50.64
31299;BME280;17927;52.350;13.402;2023-04-30T04:50:45;101865.09;;;10.53;50.53
31299;BME280;17927;52.350;13.402;2023-04-30T04:53:10;101868.19;;;10.59;50.75
31299;BME280;17927;52.350;13.402;2023-04-30T04:55:35;101872.25;;;10.65;50.51
31299;BME280;17927;52.350;13.402;2023-04-30T04:58:00;101879.91;;;10.71;50.58
31299;BME280;17927;52.350;13.402;2023-04-30T05:00:26;101890.97;;;10.79;50.71
31299;BME280;17927;52.350;13.402;2023-04-30T05:02:51;101881.31;;;10.88;50.67
31299;BME280;17927;52.350;13.402;2023-04-30T05:05:17;101892.28;;;10.98;50.65
31299;BME280;17927;52.350;13.402;2023-04-30T05:07:42;101895.03;;;11.09;51.05
31299;BME280;17927;52.350;13.402;2023-04-30T05:10:08;101895.06;;;11.21;51.01
31299;BME280;17927;52.350;13.402;2023-04-30T05:12:33;101900.50;;;11.32;50.70
31299;BME280;17927;52.350;13.402;2023-04-30T05:14:58;101905.91;;;11.43;50.61
31299;BME280;17927;52.350;13.402;2023-04-30T05:17:24;101906.06;;;11.53;50.79
31299;BME280;17927;52.350;13.402;2023-04-30T05:19:49;101898.94;;;11.64;50.73
31299;BME280;17927;52.350;13.402;2023-04-30T05:22:16;101906.31;;;11.73;50.76
31299;BME280;17927;52.350;13.402;2023-04-30T05:24:41;101901.88;;;11.83;50.38
31299;BME280;17927;52.350;13.402;2023-04-30T05:27:07;101913.97;;;11.91;50.59
31299;BME280;17927;52.350;13.402;2023-04-30T05:29:32;101922.34;;;11.99;50.43
31299;BME280;17927;52.350;13.402;2023-04-30T05:31:58;101925.03;;;12.10;50.45
31299;BME280;17927;52.350;13.402;2023-04-30T05:34:23;101924.41;;;12.18;50.39
31299;BME280;17927;52.350;13.402;2023-04-30T05:36:48;101930.19;;;12.25;50.13
31299;BME280;17927;52.350;13.402;2023-04-30T05:39:13;101925.03;;;12.33;49.99
31299;BME280;17927;52.350;13.402;2023-04-30T05:41:39;101922.53;;;12.41;50.14
31299;BME280;17927;52.350;13.402;2023-04-30T05:44:04;101929.19;;;12.48;49.85
31299;BME280;17927;52.350;13.402;2023-04-30T05:46:30;101935.69;;;12.57;49.97
31299;BME280;17927;52.350;13.402;2023-04-30T05:48:56;101938.63;;;12.66;50.00
31299;BME280;17927;52.350;13.402;2023-04-30T05:51:21;101936.00;;;12.75;49.98
31299;BME280;17927;52.350;13.402;2023-04-30T05:53:46;101937.91;;;12.85;49.90
31299;BME280;17927;52.350;13.402;2023-04-30T05:56:11;101942.69;;;12.92;49.72
31299;BME280;17927;52.350;13.402;2023-04-30T05:58:38;101943.78;;;13.01;49.67
31299;BME280;17927;52.350;13.402;2023-04-30T06:01:03;101945.00;;;13.08;49.55
31299;BME280;17927;52.350;13.402;2023-04-30T06:03:29;101949.63;;;13.18;49.00
31299;BME280;17927;52.350;13.402;2023-04-30T06:05:54;101949.09;;;13.24;49.04
31299;BME280;17927;52.350;13.402;2023-04-30T06:08:19;101947.59;;;13.31;49.05
31299;BME280;17927;52.350;13.402;2023-04-30T06:10:45;101952.44;;;13.49;49.79
31299;BME280;17927;52.350;13.402;2023-04-30T06:13:10;101954.94;;;13.83;50.57
31299;BME280;17927;52.350;13.402;2023-04-30T06:15:35;101951.97;;;14.27;51.20
31299;BME280;17927;52.350;13.402;2023-04-30T06:18:01;101955.13;;;14.83;51.25
31299;BME280;17927;52.350;13.402;2023-04-30T06:20:26;101945.38;;;15.29;50.47
31299;BME280;17927;52.350;13.402;2023-04-30T06:22:52;101950.03;;;15.66;49.81
31299;BME280;17927;52.350;13.402;2023-04-30T06:25:17;101953.00;;;15.93;48.74
31299;BME280;17927;52.350;13.402;2023-04-30T06:27:42;101955.94;;;16.09;47.79
31299;BME280;17927;52.350;13.402;2023-04-30T06:30:08;101961.75;;;16.24;47.45
31299;BME280;17927;52.350;13.402;2023-04-30T06:32:33;101960.34;;;16.48;47.68
31299;BME280;17927;52.350;13.402;2023-04-30T06:34:58;101961.06;;;16.68;47.72
31299;BME280;17927;52.350;13.402;2023-04-30T06:37:24;101963.56;;;16.80;47.38
31299;BME280;17927;52.350;13.402;2023-04-30T06:39:49;101963.09;;;16.84;46.65
31299;BME280;17927;52.350;13.402;2023-04-30T06:42:15;101962.25;;;16.84;45.89
31299;BME280;17927;52.350;13.402;2023-04-30T06:44:40;101970.03;;;16.79;45.30
31299;BME280;17927;52.350;13.402;2023-04-30T06:47:06;101962.47;;;16.72;45.32
31299;BME280;17927;52.350;13.402;2023-04-30T06:49:31;101961.38;;;16.65;44.87
31299;BME280;17927;52.350;13.402;2023-04-30T06:51:56;101961.97;;;16.59;44.87
31299;BME280;17927;52.350;13.402;2023-04-30T06:54:23;101970.63;;;16.54;44.65
31299;BME280;17927;52.350;13.402;2023-04-30T06:56:50;101970.06;;;16.51;44.58
31299;BME280;17927;52.350;13.402;2023-04-30T06:59:15;101974.09;;;16.47;44.20
31299;BME280;17927;52.350;13.402;2023-04-30T07:01:40;101964.53;;;16.42;44.10
31299;BME280;17927;52.350;13.402;2023-04-30T07:04:05;101967.69;;;16.38;44.03
31299;BME280;17927;52.350;13.402;2023-04-30T07:06:31;101969.88;;;16.34;43.77
31299;BME280;17927;52.350;13.402;2023-04-30T07:08:56;101973.59;;;16.33;43.69
31299;BME280;17927;52.350;13.402;2023-04-30T07:11:21;101969.16;;;16.32;43.71
31299;BME280;17927;52.350;13.402;2023-04-30T07:13:47;101969.16;;;16.32;43.60
31299;BME280;17927;52.350;13.402;2023-04-30T07:16:12;101962.88;;;16.32;43.70
31299;BME280;17927;52.350;13.402;2023-04-30T07:18:38;101969.03;;;16.34;43.44
31299;BME280;17927;52.350;13.402;2023-04-30T07:21:04;101970.75;;;16.35;43.32
31299;BME280;17927;52.350;13.402;2023-04-30T07:23:30;101962.69;;;16.33;43.33
31299;BME280;17927;52.350;13.402;2023-04-30T07:25:55;101967.31;;;16.33;43.47
31299;BME280;17927;52.350;13.402;2023-04-30T07:28:20;101961.69;;;16.34;43.40
31299;BME280;17927;52.350;13.402;2023-04-30T07:30:46;101964.84;;;16.39;43.38
31299;BME280;17927;52.350;13.402;2023-04-30T07:33:11;101963.50;;;16.43;43.69
31299;BME280;17927;52.350;13.402;2023-04-30T07:35:37;101964.06;;;16.47;43.43
31299;BME280;17927;52.350;13.402;2023-04-30T07:38:02;101963.06;;;16.48;42.92
31299;BME280;17927;52.350;13.402;2023-04-30T07:40:29;101964.91;;;16.48;42.89
31299;BME280;17927;52.350;13.402;2023-04-30T07:42:55;101967.09;;;16.44;42.92
31299;BME280;17927;52.350;13.402;2023-04-30T07:45:20;101970.00;;;16.42;42.73
31299;BME280;17927;52.350;13.402;2023-04-30T07:47:45;101968.09;;;16.43;42.92
31299;BME280;17927;52.350;13.402;2023-04-30T07:50:11;101974.41;;;16.43;42.80
31299;BME280;17927;52.350;13.402;2023-04-30T07:52:38;101967.94;;;16.44;42.65
31299;BME280;17927;52.350;13.402;2023-04-30T07:55:04;101970.53;;;16.46;42.69
31299;BME280;17927;52.350;13.402;2023-04-30T07:57:29;101977.41;;;16.50;43.02
31299;BME280;17927;52.350;13.402;2023-04-30T07:59:55;101974.22;;;16.55;42.81
31299;BME280;17927;52.350;13.402;2023-04-30T08:02:21;101981.78;;;16.61;42.77
31299;BME280;17927;52.350;13.402;2023-04-30T08:04:46;101979.44;;;16.66;42.59
31299;BME280;17927;52.350;13.402;2023-04-30T08:07:11;101971.97;;;16.68;42.55
31299;BME280;17927;52.350;13.402;2023-04-30T08:09:37;101979.28;;;16.68;42.12
31299;BME280;17927;52.350;13.402;2023-04-30T08:12:02;101974.84;;;16.67;41.83
31299;BME280;17927;52.350;13.402;2023-04-30T08:14:29;101977.28;;;16.70;41.87
31299;BME280;17927;52.350;13.402;2023-04-30T08:16:55;101977.13;;;16.71;41.71
31299;BME280;17927;52.350;13.402;2023-04-30T08:19:22;101979.41;;;16.76;41.69
31299;BME280;17927;52.350;13.402;2023-04-30T08:21:47;101982.66;;;16.80;41.39
31299;BME280;17927;52.350;13.402;2023-04-30T08:24:12;101977.91;;;16.82;41.22
31299;BME280;17927;52.350;13.402;2023-04-30T08:26:38;101984.91;;;16.84;41.18
31299;BME280;17927;52.350;13.402;2023-04-30T08:29:03;101983.06;;;16.85;40.70
31299;BME280;17927;52.350;13.402;2023-04-30T08:31:28;101986.50;;;16.87;40.90
31299;BME280;17927;52.350;13.402;2023-04-30T08:33:53;101991.63;;;16.90;40.80
31299;BME280;17927;52.350;13.402;2023-04-30T08:36:19;101982.44;;;16.91;41.08
31299;BME280;17927;52.350;13.402;2023-04-30T08:38:44;101983.13;;;16.93;40.87
31299;BME280;17927;52.350;13.402;2023-04-30T08:41:13;101981.69;;;16.99;40.46
31299;BME280;17927;52.350;13.402;2023-04-30T08:43:39;101984.97;;;17.02;40.05
31299;BME280;17927;52.350;13.402;2023-04-30T08:46:05;101995.56;;;17.05;39.46
31299;BME280;17927;52.350;13.402;2023-04-30T08:48:31;101988.09;;;17.08;39.48
31299;BME280;17927;52.350;13.402;2023-04-30T08:51:00;101976.16;;;17.09;39.33
31299;BME280;17927;52.350;13.402;2023-04-30T08:53:26;101984.19;;;17.10;39.69
31299;BME280;17927;52.350;13.402;2023-04-30T08:55:51;101978.75;;;17.10;39.63
31299;BME280;17927;52.350;13.402;2023-04-30T08:58:16;101986.47;;;17.15;39.69
31299;BME280;17927;52.350;13.402;2023-04-30T09:00:41;101985.28;;;17.17;40.06
31299;BME280;17927;52.350;13.402;2023-04-30T09:03:07;101987.00;;;17.18;39.83
31299;BME280;17927;52.350;13.402;2023-04-30T09:05:32;101990.25;;;17.22;39.47
31299;BME280;17927;52.350;13.402;2023-04-30T09:07:58;101984.66;;;17.24;39.37
31299;BME280;17927;52.350;13.402;2023-04-30T09:10:23;101986.22;;;17.26;39.77
31299;BME280;17927;52.350;13.402;2023-04-30T09:13:03;101994.94;;;17.30;39.61
31299;BME280;17927;52.350;13.402;2023-04-30T09:15:29;101992.38;;;17.28;39.46
31299;BME280;17927;52.350;13.402;2023-04-30T09:18:06;101984.56;;;17.33;39.32
31299;BME280;17927;52.350;13.402;2023-04-30T09:20:32;101995.34;;;17.35;39.43
31299;BME280;17927;52.350;13.402;2023-04-30T09:23:05;101988.53;;;17.39;39.20
31299;BME280;17927;52.350;13.402;2023-04-30T09:25:39;101999.16;;;17.42;39.40
31299;BME280;17927;52.350;13.402;2023-04-30T09:28:09;101991.63;;;17.44;39.58
31299;BME280;17927;52.350;13.402;2023-04-30T09:30:35;101998.69;;;17.47;39.87
31299;BME280;17927;52.350;13.402;2023-04-30T09:33:01;101988.28;;;17.50;39.68
31299;BME280;17927;52.350;13.402;2023-04-30T09:35:45;101989.16;;;17.51;38.97
31299;BME280;17927;52.350;13.402;2023-04-30T09:38:27;101996.31;;;17.52;38.41
31299;BME280;17927;52.350;13.402;2023-04-30T09:40:53;101995.63;;;17.50;38.66
31299;BME280;17927;52.350;13.402;2023-04-30T09:43:18;101994.44;;;17.53;38.07
31299;BME280;17927;52.350;13.402;2023-04-30T09:45:48;102003.34;;;17.55;37.78
31299;BME280;17927;52.350;13.402;2023-04-30T09:48:17;101989.69;;;17.55;37.87
31299;BME280;17927;52.350;13.402;2023-04-30T09:50:44;102004.19;;;17.55;37.93
31299;BME280;17927;52.350;13.402;2023-04-30T09:53:12;101997.72;;;17.56;37.90
31299;BME280;17927;52.350;13.402;2023-04-30T09:55:41;101978.28;;;17.59;38.11
31299;BME280;17927;52.350;13.402;2023-04-30T09:58:09;101989.72;;;17.63;37.47
31299;BME280;17927;52.350;13.402;2023-04-30T10:00:35;101983.25;;;17.64;37.23
31299;BME280;17927;52.350;13.402;2023-04-30T10:03:06;101974.91;;;17.65;37.51
31299;BME280;17927;52.350;13.402;2023-04-30T10:05:36;101973.03;;;17.66;37.11
31299;BME280;17927;52.350;13.402;2023-04-30T10:08:02;101977.47;;;17.67;37.39
31299;BME280;17927;52.350;13.402;2023-04-30T10:10:30;101980.75;;;17.71;37.51
31299;BME280;17927;52.350;13.402;2023-04-30T10:12:59;101968.78;;;17.72;37.22
31299;BME280;17927;52.350;13.402;2023-04-30T10:15:30;101975.84;;;17.74;36.90
31299;BME280;17927;52.350;13.402;2023-04-30T10:18:16;101971.22;;;17.75;36.48
31299;BME280;17927;52.350;13.402;2023-04-30T10:20:45;101977.50;;;17.75;36.61
31299;BME280;17927;52.350;13.402;2023-04-30T10:23:12;101978.22;;;17.77;36.86
31299;BME280;17927;52.350;13.402;2023-04-30T10:25:38;101978.78;;;17.81;37.06
31299;BME280;17927;52.350;13.402;2023-04-30T10:28:07;101979.13;;;17.86;36.90
31299;BME280;17927;52.350;13.402;2023-04-30T10:30:33;101975.91;;;17.91;36.78
31299;BME280;17927;52.350;13.402;2023-04-30T10:35:58;101961.22;;;17.92;36.32
31299;BME280;17927;52.350;13.402;2023-04-30T10:38:26;101965.53;;;17.94;36.09
31299;BME280;17927;52.350;13.402;2023-04-30T10:40:56;101961.44;;;17.99;35.94
31299;BME280;17927;52.350;13.402;2023-04-30T10:43:25;101964.75;;;18.02;36.17
31299;BME280;17927;52.350;13.402;2023-04-30T10:45:50;101972.28;;;18.08;36.23
31299;BME280;17927;52.350;13.402;2023-04-30T10:48:16;101962.91;;;18.11;36.24
31299;BME280;17927;52.350;13.402;2023-04-30T10:50:50;101959.50;;;18.17;36.06
31299;BME280;17927;52.350;13.402;2023-04-30T10:53:17;101949.94;;;18.21;35.76
31299;BME280;17927;52.350;13.402;2023-04-30T10:55:46;101952.38;;;18.24;35.55
31299;BME280;17927;52.350;13.402;2023-04-30T10:58:35;101949.31;;;18.28;35.56
31299;BME280;17927;52.350;13.402;2023-04-30T11:01:14;101955.81;;;18.26;35.75
31299;BME280;17927;52.350;13.402;2023-04-30T11:03:41;101956.31;;;18.30;35.89
31299;BME280;17927;52.350;13.402;2023-04-30T11:06:14;101955.81;;;18.35;35.91
31299;BME280;17927;52.350;13.402;2023-04-30T11:08:44;101949.00;;;18.39;35.32
31299;BME280;17927;52.350;13.402;2023-04-30T11:11:10;101948.81;;;18.40;34.74
31299;BME280;17927;52.350;13.402;2023-04-30T11:13:57;101945.56;;;18.45;35.29
31299;BME280;17927;52.350;13.402;2023-04-30T11:16:29;101942.50;;;18.48;35.31
31299;BME280;17927;52.350;13.402;2023-04-30T11:19:04;101940.66;;;18.57;35.40
31299;BME280;17927;52.350;13.402;2023-04-30T11:21:31;101944.44;;;18.64;35.41
31299;BME280;17927;52.350;13.402;2023-04-30T11:24:03;101944.44;;;18.72;34.91
31299;BME280;17927;52.350;13.402;2023-04-30T11:26:28;101943.44;;;18.74;35.07
31299;BME280;17927;52.350;13.402;2023-04-30T11:28:54;101933.00;;;18.77;34.95
31299;BME280;17927;52.350;13.402;2023-04-30T11:31:20;101937.81;;;18.83;34.41
31299;BME280;17927;52.350;13.402;2023-04-30T11:33:46;101923.59;;;18.88;34.60
31299;BME280;17927;52.350;13.402;2023-04-30T11:36:13;101923.09;;;18.93;34.48
31299;BME280;17927;52.350;13.402;2023-04-30T11:38:38;101933.41;;;18.99;34.76
31299;BME280;17927;52.350;13.402;2023-04-30T11:41:04;101927.94;;;19.07;34.68
31299;BME280;17927;52.350;13.402;2023-04-30T11:43:31;101927.09;;;19.15;34.99
31299;BME280;17927;52.350;13.402;2023-04-30T11:46:12;101936.13;;;19.24;34.87
31299;BME280;17927;52.350;13.402;2023-04-30T11:48:39;101920.03;;;19.29;35.33
31299;BME280;17927;52.350;13.402;2023-04-30T11:51:20;101919.19;;;19.37;35.48
31299;BME280;17927;52.350;13.402;2023-04-30T11:53:50;101904.97;;;19.41;34.98
31299;BME280;17927;52.350;13.402;2023-04-30T11:56:19;101915.22;;;19.47;34.75
31299;BME280;17927;52.350;13.402;2023-04-30T11:58:46;101913.88;;;19.52;34.78
31299;BME280;17927;52.350;13.402;2023-04-30T12:01:11;101916.91;;;19.57;34.77
31299;BME280;17927;52.350;13.402;2023-04-30T12:03:45;101917.25;;;19.62;34.08
31299;BME280;17927;52.350;13.402;2023-04-30T12:06:21;101919.97;;;19.70;34.42
31299;BME280;17927;52.350;13.402;2023-04-30T12:08:47;101916.53;;;19.76;35.32
31299;BME280;17927;52.350;13.402;2023-04-30T12:11:19;101912.41;;;19.89;34.73
31299;BME280;17927;52.350;13.402;2023-04-30T12:14:05;101914.59;;;20.02;34.91
31299;BME280;17927;52.350;13.402;2023-04-30T12:16:40;101920.06;;;20.02;36.78
31299;BME280;17927;52.350;13.402;2023-04-30T12:19:06;101914.59;;;20.33;36.78
31299;BME280;17927;52.350;13.402;2023-04-30T12:21:32;101924.00;;;20.71;35.89
31299;BME280;17927;52.350;13.402;2023-04-30T12:23:58;101910.72;;;21.06;35.90
31299;BME280;17927;52.350;13.402;2023-04-30T12:26:23;101910.69;;;21.44;36.16
31299;BME280;17927;52.350;13.402;2023-04-30T12:28:51;101911.34;;;21.84;35.69
31299;BME280;17927;52.350;13.402;2023-04-30T12:31:16;101905.69;;;22.23;35.83
31299;BME280;17927;52.350;13.402;2023-04-30T12:33:42;101914.44;;;22.63;34.62
31299;BME280;17927;52.350;13.402;2023-04-30T12:36:10;101910.56;;;23.01;33.44
31299;BME280;17927;52.350;13.402;2023-04-30T12:38:36;101906.44;;;23.40;34.08
31299;BME280;17927;52.350;13.402;2023-04-30T12:41:03;101906.72;;;23.80;33.11
31299;BME280;17927;52.350;13.402;2023-04-30T12:43:28;101897.19;;;24.25;33.11
31299;BME280;17927;52.350;13.402;2023-04-30T12:45:54;101885.16;;;24.66;32.74
31299;BME280;17927;52.350;13.402;2023-04-30T12:48:24;101889.50;;;25.09;32.00